sensor_id;sensor_type;location;lat;lon;timestamp;P1;durP1;ratioP1;P2;durP2;ratioP2
48629;SDS011;34426;52.180;4.462;2023-02-12T00:01:09;33.50;;;17.30;;
48629;SDS011;34426;52.180;4.462;2023-02-12T00:03:39;25.00;;;16.63;;
48629;SDS011;34426;52.180;4.462;2023-02-12T00:06:07;28.40;;;18.10;;
48629;SDS011;34426;52.180;4.462;2023-02-12T00:08:35;29.30;;;18.20;;
48629;SDS011;34426;52.180;4.462;2023-02-12T00:11:08;28.10;;;18.52;;
48629;SDS011;34426;52.180;4.462;2023-02-12T00:13:36;30.15;;;17.63;;
48629;SDS011;34426;52.180;4.462;2023-02-12T00:16:04;29.80;;;17.38;;
48629;SDS011;34426;52.180;4.462;2023-02-12T00:18:32;27.02;;;16.77;;
48629;SDS011;34426;52.180;4.462;2023-02-12T00:21:02;30.67;;;17.48;;
48629;SDS011;34426;52.180;4.462;2023-02-12T00:23:29;28.02;;;17.15;;
48629;SDS011;34426;52.180;4.462;2023-02-12T00:25:57;29.88;;;17.75;;
48629;SDS011;34426;52.180;4.462;2023-02-12T00:28:24;25.90;;;17.05;;
48629;SDS011;34426;52.180;4.462;2023-02-12T00:30:52;26.35;;;16.50;;
48629;SDS011;34426;52.180;4.462;2023-02-12T00:33:19;29.38;;;17.08;;
48629;SDS011;34426;52.180;4.462;2023-02-12T00:35:54;24.77;;;15.85;;
48629;SDS011;34426;52.180;4.462;2023-02-12T00:38:23;25.17;;;14.82;;
48629;SDS011;34426;52.180;4.462;2023-02-12T00:40:51;23.90;;;14.80;;
48629;SDS011;34426;52.180;4.462;2023-02-12T00:43:18;18.80;;;14.77;;
48629;SDS011;34426;52.180;4.462;2023-02-12T00:45:45;27.35;;;15.77;;
48629;SDS011;34426;52.180;4.462;2023-02-12T00:48:13;23.85;;;15.75;;
48629;SDS011;34426;52.180;4.462;2023-02-12T00:50:42;30.98;;;17.20;;
48629;SDS011;34426;52.180;4.462;2023-02-12T00:53:10;26.70;;;14.55;;
48629;SDS011;34426;52.180;4.462;2023-02-12T00:55:39;22.40;;;15.55;;
48629;SDS011;34426;52.180;4.462;2023-02-12T00:58:06;21.60;;;14.30;;
48629;SDS011;34426;52.180;4.462;2023-02-12T01:00:34;20.17;;;14.18;;
48629;SDS011;34426;52.180;4.462;2023-02-12T01:03:02;20.58;;;14.13;;
48629;SDS011;34426;52.180;4.462;2023-02-12T01:05:29;23.42;;;14.38;;
48629;SDS011;34426;52.180;4.462;2023-02-12T01:07:57;22.20;;;14.60;;
48629;SDS011;34426;52.180;4.462;2023-02-12T01:10:25;27.90;;;13.88;;
48629;SDS011;34426;52.180;4.462;2023-02-12T01:12:54;22.92;;;13.98;;
48629;SDS011;34426;52.180;4.462;2023-02-12T01:15:22;23.00;;;13.15;;
48629;SDS011;34426;52.180;4.462;2023-02-12T01:17:50;17.20;;;12.85;;
48629;SDS011;34426;52.180;4.462;2023-02-12T01:22:46;23.17;;;13.10;;
48629;SDS011;34426;52.180;4.462;2023-02-12T01:25:14;25.67;;;11.88;;
48629;SDS011;34426;52.180;4.462;2023-02-12T01:27:41;22.08;;;12.80;;
48629;SDS011;34426;52.180;4.462;2023-02-12T01:30:12;15.32;;;10.45;;
48629;SDS011;34426;52.180;4.462;2023-02-12T01:32:41;20.30;;;11.68;;
48629;SDS011;34426;52.180;4.462;2023-02-12T01:35:08;20.95;;;11.70;;
48629;SDS011;34426;52.180;4.462;2023-02-12T01:37:36;15.73;;;9.63;;
48629;SDS011;34426;52.180;4.462;2023-02-12T01:40:04;16.67;;;11.07;;
48629;SDS011;34426;52.180;4.462;2023-02-12T01:42:32;15.20;;;10.23;;
48629;SDS011;34426;52.180;4.462;2023-02-12T01:48:11;21.05;;;11.15;;
48629;SDS011;34426;52.180;4.462;2023-02-12T01:50:41;15.75;;;10.65;;
48629;SDS011;34426;52.180;4.462;2023-02-12T01:53:10;15.80;;;9.52;;
48629;SDS011;34426;52.180;4.462;2023-02-12T01:55:41;18.08;;;9.63;;
48629;SDS011;34426;52.180;4.462;2023-02-12T01:58:08;15.18;;;9.40;;
48629;SDS011;34426;52.180;4.462;2023-02-12T02:00:36;11.27;;;8.50;;
48629;SDS011;34426;52.180;4.462;2023-02-12T02:03:06;15.43;;;9.07;;
48629;SDS011;34426;52.180;4.462;2023-02-12T02:05:36;11.93;;;8.75;;
48629;SDS011;34426;52.180;4.462;2023-02-12T02:08:08;17.67;;;8.43;;
48629;SDS011;34426;52.180;4.462;2023-02-12T02:10:36;17.25;;;8.90;;
48629;SDS011;34426;52.180;4.462;2023-02-12T02:13:04;13.82;;;7.93;;
48629;SDS011;34426;52.180;4.462;2023-02-12T02:15:31;14.45;;;8.10;;
48629;SDS011;34426;52.180;4.462;2023-02-12T02:18:01;10.98;;;7.40;;
48629;SDS011;34426;52.180;4.462;2023-02-12T02:27:03;15.02;;;6.97;;
48629;SDS011;34426;52.180;4.462;2023-02-12T02:32:43;15.20;;;6.43;;
48629;SDS011;34426;52.180;4.462;2023-02-12T02:35:17;9.60;;;6.30;;
48629;SDS011;34426;52.180;4.462;2023-02-12T02:37:55;13.02;;;5.90;;
48629;SDS011;34426;52.180;4.462;2023-02-12T02:40:31;10.10;;;5.45;;
48629;SDS011;34426;52.180;4.462;2023-02-12T02:43:05;13.13;;;5.63;;
48629;SDS011;34426;52.180;4.462;2023-02-12T02:45:36;9.07;;;5.03;;
48629;SDS011;34426;52.180;4.462;2023-02-12T02:48:09;10.43;;;5.10;;
48629;SDS011;34426;52.180;4.462;2023-02-12T02:50:43;10.07;;;4.80;;
48629;SDS011;34426;52.180;4.462;2023-02-12T02:53:15;11.10;;;4.87;;
48629;SDS011;34426;52.180;4.462;2023-02-12T02:55:47;10.68;;;5.10;;
48629;SDS011;34426;52.180;4.462;2023-02-12T02:58:19;8.25;;;3.38;;
48629;SDS011;34426;52.180;4.462;2023-02-12T03:00:49;10.35;;;3.00;;
48629;SDS011;34426;52.180;4.462;2023-02-12T03:03:26;10.38;;;3.55;;
48629;SDS011;34426;52.180;4.462;2023-02-12T03:05:58;11.02;;;3.00;;
48629;SDS011;34426;52.180;4.462;2023-02-12T03:08:29;11.27;;;2.93;;
48629;SDS011;34426;52.180;4.462;2023-02-12T03:11:01;7.77;;;3.03;;
48629;SDS011;34426;52.180;4.462;2023-02-12T03:13:36;9.13;;;3.20;;
48629;SDS011;34426;52.180;4.462;2023-02-12T03:16:10;4.05;;;2.72;;
48629;SDS011;34426;52.180;4.462;2023-02-12T03:18:43;8.27;;;2.90;;
48629;SDS011;34426;52.180;4.462;2023-02-12T03:21:17;9.82;;;2.78;;
48629;SDS011;34426;52.180;4.462;2023-02-12T03:23:51;10.65;;;2.72;;
48629;SDS011;34426;52.180;4.462;2023-02-12T03:26:25;5.90;;;1.98;;
48629;SDS011;34426;52.180;4.462;2023-02-12T03:29:01;6.22;;;2.00;;
48629;SDS011;34426;52.180;4.462;2023-02-12T03:31:33;6.45;;;1.48;;
48629;SDS011;34426;52.180;4.462;2023-02-12T03:34:09;7.82;;;1.42;;
48629;SDS011;34426;52.180;4.462;2023-02-12T03:36:44;3.88;;;1.55;;
48629;SDS011;34426;52.180;4.462;2023-02-12T03:39:15;13.48;;;1.63;;
48629;SDS011;34426;52.180;4.462;2023-02-12T03:41:54;16.10;;;1.60;;
48629;SDS011;34426;52.180;4.462;2023-02-12T03:44:29;10.93;;;1.30;;
48629;SDS011;34426;52.180;4.462;2023-02-12T03:47:10;10.52;;;1.33;;
48629;SDS011;34426;52.180;4.462;2023-02-12T03:49:45;7.15;;;1.60;;
48629;SDS011;34426;52.180;4.462;2023-02-12T03:52:20;6.15;;;1.20;;
48629;SDS011;34426;52.180;4.462;2023-02-12T03:54:47;8.18;;;1.65;;
48629;SDS011;34426;52.180;4.462;2023-02-12T03:57:16;10.68;;;1.42;;
48629;SDS011;34426;52.180;4.462;2023-02-12T03:59:45;6.65;;;1.48;;
48629;SDS011;34426;52.180;4.462;2023-02-12T04:02:14;6.00;;;1.50;;
48629;SDS011;34426;52.180;4.462;2023-02-12T04:04:45;10.82;;;1.30;;
48629;SDS011;34426;52.180;4.462;2023-02-12T04:07:13;7.40;;;1.65;;
48629;SDS011;34426;52.180;4.462;2023-02-12T04:09:41;7.90;;;1.13;;
48629;SDS011;34426;52.180;4.462;2023-02-12T04:12:12;5.13;;;1.58;;
48629;SDS011;34426;52.180;4.462;2023-02-12T04:14:53;6.90;;;1.20;;
48629;SDS011;34426;52.180;4.462;2023-02-12T04:17:29;8.60;;;1.63;;
48629;SDS011;34426;52.180;4.462;2023-02-12T04:20:07;8.00;;;2.22;;
48629;SDS011;34426;52.180;4.462;2023-02-12T04:22:44;6.82;;;1.45;;
48629;SDS011;34426;52.180;4.462;2023-02-12T04:25:25;3.80;;;1.15;;
48629;SDS011;34426;52.180;4.462;2023-02-12T04:28:06;2.88;;;0.98;;
48629;SDS011;34426;52.180;4.462;2023-02-12T04:30:40;5.25;;;1.13;;
48629;SDS011;34426;52.180;4.462;2023-02-12T04:33:11;4.07;;;1.40;;
48629;SDS011;34426;52.180;4.462;2023-02-12T04:35:46;5.35;;;1.15;;
48629;SDS011;34426;52.180;4.462;2023-02-12T04:38:24;4.93;;;1.20;;
48629;SDS011;34426;52.180;4.462;2023-02-12T04:40:54;3.80;;;1.40;;
48629;SDS011;34426;52.180;4.462;2023-02-12T04:43:27;5.28;;;1.25;;
48629;SDS011;34426;52.180;4.462;2023-02-12T04:45:54;6.88;;;1.58;;
48629;SDS011;34426;52.180;4.462;2023-02-12T04:48:22;5.70;;;1.75;;
48629;SDS011;34426;52.180;4.462;2023-02-12T04:50:51;2.08;;;1.13;;
48629;SDS011;34426;52.180;4.462;2023-02-12T04:53:18;11.18;;;1.42;;
48629;SDS011;34426;52.180;4.462;2023-02-12T04:55:46;9.13;;;1.48;;
48629;SDS011;34426;52.180;4.462;2023-02-12T04:58:13;4.32;;;1.30;;
48629;SDS011;34426;52.180;4.462;2023-02-12T05:00:40;2.92;;;1.20;;
48629;SDS011;34426;52.180;4.462;2023-02-12T05:03:07;6.03;;;1.40;;
48629;SDS011;34426;52.180;4.462;2023-02-12T05:05:34;8.50;;;1.60;;
48629;SDS011;34426;52.180;4.462;2023-02-12T05:08:02;9.40;;;1.45;;
48629;SDS011;34426;52.180;4.462;2023-02-12T05:10:30;10.02;;;1.42;;
48629;SDS011;34426;52.180;4.462;2023-02-12T05:12:57;5.28;;;1.40;;
48629;SDS011;34426;52.180;4.462;2023-02-12T05:15:24;5.78;;;1.15;;
48629;SDS011;34426;52.180;4.462;2023-02-12T05:17:51;3.85;;;1.23;;
48629;SDS011;34426;52.180;4.462;2023-02-12T05:20:19;8.35;;;1.90;;
48629;SDS011;34426;52.180;4.462;2023-02-12T05:22:50;5.75;;;1.70;;
48629;SDS011;34426;52.180;4.462;2023-02-12T05:25:20;5.68;;;1.63;;
48629;SDS011;34426;52.180;4.462;2023-02-12T05:27:48;5.80;;;1.50;;
48629;SDS011;34426;52.180;4.462;2023-02-12T05:30:15;5.60;;;1.63;;
48629;SDS011;34426;52.180;4.462;2023-02-12T05:32:43;3.95;;;1.27;;
48629;SDS011;34426;52.180;4.462;2023-02-12T05:35:11;3.75;;;1.13;;
48629;SDS011;34426;52.180;4.462;2023-02-12T05:37:38;9.68;;;1.65;;
48629;SDS011;34426;52.180;4.462;2023-02-12T05:40:05;7.22;;;1.30;;
48629;SDS011;34426;52.180;4.462;2023-02-12T05:42:35;6.28;;;1.20;;
48629;SDS011;34426;52.180;4.462;2023-02-12T05:45:03;7.47;;;1.58;;
48629;SDS011;34426;52.180;4.462;2023-02-12T05:47:31;7.20;;;1.45;;
48629;SDS011;34426;52.180;4.462;2023-02-12T05:49:58;4.53;;;1.65;;
48629;SDS011;34426;52.180;4.462;2023-02-12T05:52:26;4.90;;;1.40;;
48629;SDS011;34426;52.180;4.462;2023-02-12T05:54:53;5.00;;;1.45;;
48629;SDS011;34426;52.180;4.462;2023-02-12T05:57:21;6.10;;;1.75;;
48629;SDS011;34426;52.180;4.462;2023-02-12T05:59:49;8.75;;;1.83;;
48629;SDS011;34426;52.180;4.462;2023-02-12T06:02:17;7.07;;;1.20;;
48629;SDS011;34426;52.180;4.462;2023-02-12T06:04:44;10.13;;;1.70;;
48629;SDS011;34426;52.180;4.462;2023-02-12T06:07:12;6.50;;;1.58;;
48629;SDS011;34426;52.180;4.462;2023-02-12T06:09:39;10.13;;;1.83;;
48629;SDS011;34426;52.180;4.462;2023-02-12T06:12:06;8.65;;;1.38;;
48629;SDS011;34426;52.180;4.462;2023-02-12T06:14:34;7.75;;;1.50;;
48629;SDS011;34426;52.180;4.462;2023-02-12T06:17:03;5.10;;;1.77;;
48629;SDS011;34426;52.180;4.462;2023-02-12T06:19:30;5.00;;;1.58;;
48629;SDS011;34426;52.180;4.462;2023-02-12T06:21:58;10.30;;;1.63;;
48629;SDS011;34426;52.180;4.462;2023-02-12T06:24:25;5.38;;;1.50;;
48629;SDS011;34426;52.180;4.462;2023-02-12T06:26:52;2.90;;;1.15;;
48629;SDS011;34426;52.180;4.462;2023-02-12T06:29:20;4.82;;;1.27;;
48629;SDS011;34426;52.180;4.462;2023-02-12T06:31:47;3.92;;;1.33;;
48629;SDS011;34426;52.180;4.462;2023-02-12T06:34:17;8.10;;;1.60;;
48629;SDS011;34426;52.180;4.462;2023-02-12T06:36:44;8.65;;;1.45;;
48629;SDS011;34426;52.180;4.462;2023-02-12T06:39:14;7.47;;;1.20;;
48629;SDS011;34426;52.180;4.462;2023-02-12T06:41:42;7.47;;;1.58;;
48629;SDS011;34426;52.180;4.462;2023-02-12T06:44:10;3.95;;;1.13;;
48629;SDS011;34426;52.180;4.462;2023-02-12T06:46:38;7.30;;;1.33;;
48629;SDS011;34426;52.180;4.462;2023-02-12T06:49:05;5.57;;;1.45;;
48629;SDS011;34426;52.180;4.462;2023-02-12T06:51:34;7.28;;;1.88;;
48629;SDS011;34426;52.180;4.462;2023-02-12T06:54:02;7.57;;;1.85;;
48629;SDS011;34426;52.180;4.462;2023-02-12T06:56:29;6.18;;;1.77;;
48629;SDS011;34426;52.180;4.462;2023-02-12T06:58:57;10.05;;;2.47;;
48629;SDS011;34426;52.180;4.462;2023-02-12T07:01:25;7.15;;;2.05;;
48629;SDS011;34426;52.180;4.462;2023-02-12T07:03:54;8.35;;;1.92;;
48629;SDS011;34426;52.180;4.462;2023-02-12T07:06:23;8.32;;;2.20;;
48629;SDS011;34426;52.180;4.462;2023-02-12T07:08:53;10.45;;;2.17;;
48629;SDS011;34426;52.180;4.462;2023-02-12T07:11:22;16.90;;;2.67;;
48629;SDS011;34426;52.180;4.462;2023-02-12T07:13:50;9.45;;;2.50;;
48629;SDS011;34426;52.180;4.462;2023-02-12T07:16:17;8.50;;;1.92;;
48629;SDS011;34426;52.180;4.462;2023-02-12T07:18:44;6.30;;;2.35;;
48629;SDS011;34426;52.180;4.462;2023-02-12T07:21:12;9.18;;;2.80;;
48629;SDS011;34426;52.180;4.462;2023-02-12T07:23:40;6.95;;;2.30;;
48629;SDS011;34426;52.180;4.462;2023-02-12T07:26:12;8.40;;;2.83;;
48629;SDS011;34426;52.180;4.462;2023-02-12T07:28:40;7.43;;;3.00;;
48629;SDS011;34426;52.180;4.462;2023-02-12T07:31:08;9.80;;;2.35;;
48629;SDS011;34426;52.180;4.462;2023-02-12T07:33:37;9.43;;;3.17;;
48629;SDS011;34426;52.180;4.462;2023-02-12T07:36:05;7.88;;;2.30;;
48629;SDS011;34426;52.180;4.462;2023-02-12T07:38:37;13.90;;;2.47;;
48629;SDS011;34426;52.180;4.462;2023-02-12T07:41:09;11.68;;;3.05;;
48629;SDS011;34426;52.180;4.462;2023-02-12T07:43:39;5.63;;;2.92;;
48629;SDS011;34426;52.180;4.462;2023-02-12T07:46:07;15.88;;;4.13;;
48629;SDS011;34426;52.180;4.462;2023-02-12T07:48:36;12.52;;;4.13;;
48629;SDS011;34426;52.180;4.462;2023-02-12T07:51:05;10.82;;;4.25;;
48629;SDS011;34426;52.180;4.462;2023-02-12T07:53:34;6.47;;;3.05;;
48629;SDS011;34426;52.180;4.462;2023-02-12T07:56:05;8.05;;;2.88;;
48629;SDS011;34426;52.180;4.462;2023-02-12T07:58:36;13.60;;;2.90;;
48629;SDS011;34426;52.180;4.462;2023-02-12T08:01:11;7.57;;;2.95;;
48629;SDS011;34426;52.180;4.462;2023-02-12T08:03:41;7.75;;;2.65;;
48629;SDS011;34426;52.180;4.462;2023-02-12T08:06:09;7.60;;;3.30;;
48629;SDS011;34426;52.180;4.462;2023-02-12T08:08:38;7.47;;;3.05;;
48629;SDS011;34426;52.180;4.462;2023-02-12T08:11:06;6.28;;;2.70;;
48629;SDS011;34426;52.180;4.462;2023-02-12T08:13:37;14.93;;;3.13;;
48629;SDS011;34426;52.180;4.462;2023-02-12T08:16:06;12.38;;;3.45;;
48629;SDS011;34426;52.180;4.462;2023-02-12T08:18:34;7.68;;;2.85;;
48629;SDS011;34426;52.180;4.462;2023-02-12T08:21:02;10.77;;;3.17;;
48629;SDS011;34426;52.180;4.462;2023-02-12T08:23:31;9.57;;;3.80;;
48629;SDS011;34426;52.180;4.462;2023-02-12T08:26:08;9.77;;;4.15;;
48629;SDS011;34426;52.180;4.462;2023-02-12T08:28:39;11.35;;;3.60;;
48629;SDS011;34426;52.180;4.462;2023-02-12T08:31:08;8.15;;;3.80;;
48629;SDS011;34426;52.180;4.462;2023-02-12T08:33:37;8.32;;;3.88;;
48629;SDS011;34426;52.180;4.462;2023-02-12T08:36:05;13.00;;;4.15;;
48629;SDS011;34426;52.180;4.462;2023-02-12T08:38:34;7.43;;;4.25;;
48629;SDS011;34426;52.180;4.462;2023-02-12T08:41:02;10.38;;;4.35;;
48629;SDS011;34426;52.180;4.462;2023-02-12T08:43:31;11.20;;;3.85;;
48629;SDS011;34426;52.180;4.462;2023-02-12T08:46:04;6.53;;;3.67;;
48629;SDS011;34426;52.180;4.462;2023-02-12T08:48:33;6.97;;;3.95;;
48629;SDS011;34426;52.180;4.462;2023-02-12T08:51:05;14.45;;;7.40;;
48629;SDS011;34426;52.180;4.462;2023-02-12T08:53:33;17.33;;;8.85;;
48629;SDS011;34426;52.180;4.462;2023-02-12T08:56:00;13.30;;;5.97;;
48629;SDS011;34426;52.180;4.462;2023-02-12T08:58:28;11.27;;;5.70;;
48629;SDS011;34426;52.180;4.462;2023-02-12T09:00:55;11.40;;;5.35;;
48629;SDS011;34426;52.180;4.462;2023-02-12T09:03:24;9.38;;;5.15;;
48629;SDS011;34426;52.180;4.462;2023-02-12T09:05:52;9.15;;;4.82;;
48629;SDS011;34426;52.180;4.462;2023-02-12T09:08:19;8.55;;;4.45;;
48629;SDS011;34426;52.180;4.462;2023-02-12T09:10:46;7.13;;;4.70;;
48629;SDS011;34426;52.180;4.462;2023-02-12T09:13:14;9.15;;;5.28;;
48629;SDS011;34426;52.180;4.462;2023-02-12T09:15:41;11.65;;;5.07;;
48629;SDS011;34426;52.180;4.462;2023-02-12T09:18:10;9.63;;;4.47;;
48629;SDS011;34426;52.180;4.462;2023-02-12T09:20:41;11.50;;;4.50;;
48629;SDS011;34426;52.180;4.462;2023-02-12T09:23:10;15.75;;;5.03;;
48629;SDS011;34426;52.180;4.462;2023-02-12T09:25:39;7.72;;;5.32;;
48629;SDS011;34426;52.180;4.462;2023-02-12T09:28:06;17.58;;;5.38;;
48629;SDS011;34426;52.180;4.462;2023-02-12T09:30:36;11.15;;;5.82;;
48629;SDS011;34426;52.180;4.462;2023-02-12T09:33:04;14.70;;;5.45;;
48629;SDS011;34426;52.180;4.462;2023-02-12T09:35:33;14.73;;;5.93;;
48629;SDS011;34426;52.180;4.462;2023-02-12T09:38:03;10.43;;;6.63;;
48629;SDS011;34426;52.180;4.462;2023-02-12T09:40:32;14.57;;;7.28;;
48629;SDS011;34426;52.180;4.462;2023-02-12T09:43:17;16.55;;;6.80;;
48629;SDS011;34426;52.180;4.462;2023-02-12T09:45:54;11.82;;;6.85;;
48629;SDS011;34426;52.180;4.462;2023-02-12T09:48:34;15.00;;;6.43;;
48629;SDS011;34426;52.180;4.462;2023-02-12T09:51:11;10.45;;;6.50;;
48629;SDS011;34426;52.180;4.462;2023-02-12T09:53:40;10.70;;;6.68;;
48629;SDS011;34426;52.180;4.462;2023-02-12T09:56:12;14.32;;;6.78;;
48629;SDS011;34426;52.180;4.462;2023-02-12T09:58:41;12.63;;;7.65;;
48629;SDS011;34426;52.180;4.462;2023-02-12T10:01:12;12.73;;;7.78;;
48629;SDS011;34426;52.180;4.462;2023-02-12T10:03:41;13.88;;;7.60;;
48629;SDS011;34426;52.180;4.462;2023-02-12T10:06:12;14.70;;;6.93;;
48629;SDS011;34426;52.180;4.462;2023-02-12T10:11:39;16.63;;;8.15;;
48629;SDS011;34426;52.180;4.462;2023-02-12T10:14:26;16.45;;;7.68;;
48629;SDS011;34426;52.180;4.462;2023-02-12T10:17:17;15.10;;;7.10;;
48629;SDS011;34426;52.180;4.462;2023-02-12T10:20:01;17.20;;;7.82;;
48629;SDS011;34426;52.180;4.462;2023-02-12T10:22:48;14.55;;;7.07;;
48629;SDS011;34426;52.180;4.462;2023-02-12T10:25:27;9.63;;;6.97;;
48629;SDS011;34426;52.180;4.462;2023-02-12T10:28:01;13.68;;;7.20;;
48629;SDS011;34426;52.180;4.462;2023-02-12T10:30:38;14.85;;;7.30;;
48629;SDS011;34426;52.180;4.462;2023-02-12T10:33:09;11.83;;;6.90;;
48629;SDS011;34426;52.180;4.462;2023-02-12T10:35:42;11.45;;;8.13;;
48629;SDS011;34426;52.180;4.462;2023-02-12T10:38:13;23.55;;;9.05;;
48629;SDS011;34426;52.180;4.462;2023-02-12T10:40:43;10.85;;;7.70;;
48629;SDS011;34426;52.180;4.462;2023-02-12T10:43:09;12.93;;;7.47;;
48629;SDS011;34426;52.180;4.462;2023-02-12T10:45:37;9.20;;;6.93;;
48629;SDS011;34426;52.180;4.462;2023-02-12T10:48:06;15.55;;;8.00;;
48629;SDS011;34426;52.180;4.462;2023-02-12T10:50:38;10.77;;;7.72;;
48629;SDS011;34426;52.180;4.462;2023-02-12T10:53:14;13.45;;;7.45;;
48629;SDS011;34426;52.180;4.462;2023-02-12T10:55:46;12.05;;;6.80;;
48629;SDS011;34426;52.180;4.462;2023-02-12T10:58:18;22.48;;;8.20;;
48629;SDS011;34426;52.180;4.462;2023-02-12T11:00:54;8.30;;;6.60;;
48629;SDS011;34426;52.180;4.462;2023-02-12T11:03:27;13.93;;;7.13;;
48629;SDS011;34426;52.180;4.462;2023-02-12T11:05:55;12.30;;;7.85;;
48629;SDS011;34426;52.180;4.462;2023-02-12T11:08:36;11.98;;;7.07;;
48629;SDS011;34426;52.180;4.462;2023-02-12T11:11:09;14.93;;;7.35;;
48629;SDS011;34426;52.180;4.462;2023-02-12T11:13:38;20.08;;;7.10;;
48629;SDS011;34426;52.180;4.462;2023-02-12T11:16:08;15.38;;;7.57;;
48629;SDS011;34426;52.180;4.462;2023-02-12T11:18:36;13.25;;;7.97;;
48629;SDS011;34426;52.180;4.462;2023-02-12T11:21:07;16.95;;;7.97;;
48629;SDS011;34426;52.180;4.462;2023-02-12T11:23:34;15.57;;;8.70;;
48629;SDS011;34426;52.180;4.462;2023-02-12T11:26:04;16.20;;;7.95;;
48629;SDS011;34426;52.180;4.462;2023-02-12T11:28:53;12.38;;;7.95;;
48629;SDS011;34426;52.180;4.462;2023-02-12T11:31:22;10.70;;;8.43;;
48629;SDS011;34426;52.180;4.462;2023-02-12T11:33:57;13.38;;;8.63;;
48629;SDS011;34426;52.180;4.462;2023-02-12T11:36:32;17.27;;;9.35;;
48629;SDS011;34426;52.180;4.462;2023-02-12T11:39:01;12.18;;;8.27;;
48629;SDS011;34426;52.180;4.462;2023-02-12T11:41:29;11.68;;;8.07;;
48629;SDS011;34426;52.180;4.462;2023-02-12T11:43:59;12.88;;;8.40;;
48629;SDS011;34426;52.180;4.462;2023-02-12T11:46:27;13.98;;;8.43;;
48629;SDS011;34426;52.180;4.462;2023-02-12T11:48:54;9.88;;;7.68;;
48629;SDS011;34426;52.180;4.462;2023-02-12T11:51:23;10.10;;;7.35;;
48629;SDS011;34426;52.180;4.462;2023-02-12T11:53:52;12.88;;;7.97;;
48629;SDS011;34426;52.180;4.462;2023-02-12T11:56:22;11.55;;;7.85;;
48629;SDS011;34426;52.180;4.462;2023-02-12T11:58:50;12.90;;;8.02;;
48629;SDS011;34426;52.180;4.462;2023-02-12T12:01:20;12.65;;;8.00;;
48629;SDS011;34426;52.180;4.462;2023-02-12T12:03:54;12.52;;;7.30;;
48629;SDS011;34426;52.180;4.462;2023-02-12T12:06:32;14.00;;;7.68;;
48629;SDS011;34426;52.180;4.462;2023-02-12T12:09:04;14.43;;;8.80;;
48629;SDS011;34426;52.180;4.462;2023-02-12T12:11:39;13.75;;;8.15;;
48629;SDS011;34426;52.180;4.462;2023-02-12T12:14:13;22.05;;;8.80;;
48629;SDS011;34426;52.180;4.462;2023-02-12T12:16:49;15.45;;;9.20;;
48629;SDS011;34426;52.180;4.462;2023-02-12T12:19:22;12.48;;;9.95;;
48629;SDS011;34426;52.180;4.462;2023-02-12T12:21:54;17.00;;;10.48;;
48629;SDS011;34426;52.180;4.462;2023-02-12T12:24:30;12.88;;;9.90;;
48629;SDS011;34426;52.180;4.462;2023-02-12T12:27:06;16.85;;;9.98;;
48629;SDS011;34426;52.180;4.462;2023-02-12T12:29:41;11.27;;;9.38;;
48629;SDS011;34426;52.180;4.462;2023-02-12T12:32:18;13.30;;;10.85;;
48629;SDS011;34426;52.180;4.462;2023-02-12T12:34:49;13.90;;;10.05;;
48629;SDS011;34426;52.180;4.462;2023-02-12T12:37:19;14.63;;;10.07;;
48629;SDS011;34426;52.180;4.462;2023-02-12T12:39:58;10.10;;;7.88;;
48629;SDS011;34426;52.180;4.462;2023-02-12T12:45:38;13.32;;;9.05;;
48629;SDS011;34426;52.180;4.462;2023-02-12T12:48:28;13.30;;;9.50;;
48629;SDS011;34426;52.180;4.462;2023-02-12T12:51:14;12.93;;;8.13;;
48629;SDS011;34426;52.180;4.462;2023-02-12T12:53:53;11.75;;;8.77;;
48629;SDS011;34426;52.180;4.462;2023-02-12T12:56:30;12.65;;;9.02;;
48629;SDS011;34426;52.180;4.462;2023-02-12T12:59:33;13.90;;;9.02;;
48629;SDS011;34426;52.180;4.462;2023-02-12T13:02:27;14.02;;;9.13;;
48629;SDS011;34426;52.180;4.462;2023-02-12T13:05:43;19.27;;;7.78;;
48629;SDS011;34426;52.180;4.462;2023-02-12T13:08:44;16.92;;;8.80;;
48629;SDS011;34426;52.180;4.462;2023-02-12T13:11:28;10.20;;;7.30;;
48629;SDS011;34426;52.180;4.462;2023-02-12T13:14:06;14.20;;;8.45;;
48629;SDS011;34426;52.180;4.462;2023-02-12T13:16:44;19.20;;;8.38;;
48629;SDS011;34426;52.180;4.462;2023-02-12T13:19:17;12.43;;;8.30;;
48629;SDS011;34426;52.180;4.462;2023-02-12T13:21:54;13.07;;;8.57;;
48629;SDS011;34426;52.180;4.462;2023-02-12T13:24:28;16.50;;;8.73;;
48629;SDS011;34426;52.180;4.462;2023-02-12T13:27:09;16.50;;;8.98;;
48629;SDS011;34426;52.180;4.462;2023-02-12T13:29:41;12.20;;;8.02;;
48629;SDS011;34426;52.180;4.462;2023-02-12T13:34:44;12.90;;;9.30;;
48629;SDS011;34426;52.180;4.462;2023-02-12T13:37:15;13.70;;;8.63;;
48629;SDS011;34426;52.180;4.462;2023-02-12T13:39:45;14.43;;;8.90;;
48629;SDS011;34426;52.180;4.462;2023-02-12T13:42:18;18.45;;;9.15;;
48629;SDS011;34426;52.180;4.462;2023-02-12T13:45:05;15.40;;;9.43;;
48629;SDS011;34426;52.180;4.462;2023-02-12T13:47:49;12.98;;;8.45;;
48629;SDS011;34426;52.180;4.462;2023-02-12T13:50:28;14.38;;;7.75;;
48629;SDS011;34426;52.180;4.462;2023-02-12T13:53:06;13.13;;;8.40;;
48629;SDS011;34426;52.180;4.462;2023-02-12T13:55:52;14.10;;;8.98;;
48629;SDS011;34426;52.180;4.462;2023-02-12T13:58:46;12.63;;;8.85;;
48629;SDS011;34426;52.180;4.462;2023-02-12T14:04:23;11.57;;;8.63;;
48629;SDS011;34426;52.180;4.462;2023-02-12T14:06:54;13.98;;;8.75;;
48629;SDS011;34426;52.180;4.462;2023-02-12T14:09:28;15.93;;;8.23;;
48629;SDS011;34426;52.180;4.462;2023-02-12T14:11:59;14.38;;;9.27;;
48629;SDS011;34426;52.180;4.462;2023-02-12T14:14:30;12.27;;;8.77;;
48629;SDS011;34426;52.180;4.462;2023-02-12T14:19:55;14.20;;;9.80;;
48629;SDS011;34426;52.180;4.462;2023-02-12T14:25:33;16.20;;;9.43;;
48629;SDS011;34426;52.180;4.462;2023-02-12T14:28:06;15.15;;;9.63;;
48629;SDS011;34426;52.180;4.462;2023-02-12T14:30:46;18.40;;;9.38;;
48629;SDS011;34426;52.180;4.462;2023-02-12T14:37:10;14.50;;;9.90;;
48629;SDS011;34426;52.180;4.462;2023-02-12T14:39:41;16.80;;;10.40;;
48629;SDS011;34426;52.180;4.462;2023-02-12T14:45:29;15.55;;;9.68;;
48629;SDS011;34426;52.180;4.462;2023-02-12T14:47:58;12.85;;;8.38;;
48629;SDS011;34426;52.180;4.462;2023-02-12T14:50:34;17.00;;;9.88;;
48629;SDS011;34426;52.180;4.462;2023-02-12T14:53:11;15.77;;;8.77;;
48629;SDS011;34426;52.180;4.462;2023-02-12T14:55:55;13.00;;;9.23;;
48629;SDS011;34426;52.180;4.462;2023-02-12T14:58:24;18.60;;;10.75;;
48629;SDS011;34426;52.180;4.462;2023-02-12T15:00:54;14.10;;;10.45;;
48629;SDS011;34426;52.180;4.462;2023-02-12T15:03:26;14.30;;;10.40;;
48629;SDS011;34426;52.180;4.462;2023-02-12T15:06:00;18.13;;;10.13;;
48629;SDS011;34426;52.180;4.462;2023-02-12T15:08:43;15.95;;;9.43;;
48629;SDS011;34426;52.180;4.462;2023-02-12T15:14:02;11.57;;;9.38;;
48629;SDS011;34426;52.180;4.462;2023-02-12T15:16:36;16.15;;;9.93;;
48629;SDS011;34426;52.180;4.462;2023-02-12T15:19:15;14.65;;;10.77;;
48629;SDS011;34426;52.180;4.462;2023-02-12T15:21:52;17.02;;;11.77;;
48629;SDS011;34426;52.180;4.462;2023-02-12T15:24:20;15.07;;;11.68;;
48629;SDS011;34426;52.180;4.462;2023-02-12T15:26:48;19.20;;;12.88;;
48629;SDS011;34426;52.180;4.462;2023-02-12T15:29:21;16.35;;;10.82;;
48629;SDS011;34426;52.180;4.462;2023-02-12T15:31:55;14.30;;;11.52;;
48629;SDS011;34426;52.180;4.462;2023-02-12T15:34:25;22.00;;;12.50;;
48629;SDS011;34426;52.180;4.462;2023-02-12T15:36:56;17.25;;;11.82;;
48629;SDS011;34426;52.180;4.462;2023-02-12T15:39:24;19.38;;;11.98;;
48629;SDS011;34426;52.180;4.462;2023-02-12T15:41:58;17.98;;;11.52;;
48629;SDS011;34426;52.180;4.462;2023-02-12T15:44:26;16.67;;;12.32;;